createdAt,value
2023-04-12T00:00:01.307Z,1017.90
2023-04-12T00:10:01.357Z,1017.72
2023-04-12T00:20:01.103Z,1017.73
2023-04-12T00:30:01.128Z,1017.63
2023-04-12T00:40:00.783Z,1017.59
2023-04-12T00:50:01.760Z,1017.60
2023-04-12T01:00:00.861Z,1017.60
2023-04-12T01:10:01.367Z,1017.60
2023-04-12T01:20:01.140Z,1017.37
2023-04-12T01:30:01.335Z,1017.26
2023-04-12T01:40:00.804Z,1017.23
2023-04-12T01:50:01.523Z,1017.17
2023-04-12T02:00:00.841Z,1017.17
2023-04-12T02:10:00.250Z,1017.11
2023-04-12T02:20:01.912Z,1017.03
2023-04-12T02:30:00.884Z,1016.82
2023-04-12T02:40:00.810Z,1016.84
2023-04-12T02:50:01.510Z,1016.57
2023-04-12T03:00:00.979Z,1016.58
2023-04-12T03:10:00.250Z,1016.41
2023-04-12T03:20:01.052Z,1016.29
2023-04-12T03:30:02.166Z,1016.22
2023-04-12T03:40:01.106Z,1016.17
2023-04-12T03:50:10.743Z,1015.91
2023-04-12T04:00:03.050Z,1015.75
2023-04-12T04:10:00.847Z,1015.66
2023-04-12T04:20:00.953Z,1015.63
2023-04-12T04:30:02.227Z,1015.73
2023-04-12T04:40:00.939Z,1015.62
2023-04-12T04:50:01.187Z,1015.54
2023-04-12T05:00:00.243Z,1015.52
2023-04-12T05:10:01.283Z,1015.40
2023-04-12T05:20:01.520Z,1015.37
2023-04-12T05:30:00.864Z,1015.35
2023-04-12T05:40:01.486Z,1015.23
2023-04-12T05:50:02.182Z,1015.13
2023-04-12T06:00:00.851Z,1014.94
2023-04-12T06:10:01.598Z,1014.77
2023-04-12T06:20:01.362Z,1014.52
2023-04-12T06:30:01.488Z,1014.35
2023-04-12T06:40:01.273Z,1014.24
2023-04-12T06:50:01.110Z,1014.17
2023-04-12T07:00:00.868Z,1014.05
2023-04-12T07:10:00.270Z,1013.85
2023-04-12T07:20:01.293Z,1013.74
2023-04-12T07:30:00.897Z,1013.61
2023-04-12T07:40:00.272Z,1013.48
2023-04-12T08:00:00.974Z,1013.15
2023-04-12T08:10:01.502Z,1013.00
2023-04-12T08:20:00.760Z,1012.83
2023-04-12T08:30:00.865Z,1012.74
2023-04-12T08:40:02.246Z,1012.55
2023-04-12T09:00:02.181Z,1012.24
2023-04-12T09:10:02.065Z,1012.16
2023-04-12T09:20:01.398Z,1011.95
2023-04-12T09:30:01.074Z,1011.89
2023-04-12T09:40:01.039Z,1011.61
2023-04-12T09:50:01.071Z,1011.44
2023-04-12T10:00:01.316Z,1011.13
2023-04-12T10:10:00.892Z,1010.91
2023-04-12T10:20:00.922Z,1010.72
2023-04-12T10:30:00.906Z,1010.40
2023-04-12T10:40:00.861Z,1010.17
2023-04-12T10:50:00.887Z,1010.07
2023-04-12T11:00:01.022Z,1009.90
2023-04-12T11:10:00.785Z,1009.57
2023-04-12T11:20:01.572Z,1009.41
2023-04-12T11:30:01.070Z,1009.29
2023-04-12T11:40:01.053Z,1009.09
2023-04-12T11:50:01.387Z,1009.02
2023-04-12T12:00:01.511Z,1008.78
2023-04-12T12:10:01.043Z,1008.53
2023-04-12T12:20:01.896Z,1008.34
2023-04-12T12:30:01.050Z,1008.06
2023-04-12T12:40:00.868Z,1007.91
2023-04-12T12:50:01.331Z,1007.77
2023-04-12T13:00:01.534Z,1007.73
2023-04-12T13:10:03.676Z,1007.49
2023-04-12T13:20:01.083Z,1007.32
2023-04-12T13:30:02.011Z,1007.28
2023-04-12T13:40:00.802Z,1007.09
2023-04-12T13:50:02.098Z,1006.93
2023-04-12T14:00:01.110Z,1006.81
2023-04-12T14:10:01.166Z,1006.63
2023-04-12T14:20:00.898Z,1006.53
2023-04-12T14:40:01.054Z,1006.81
2023-04-12T14:50:01.311Z,1006.69
2023-04-12T15:00:00.223Z,1006.75
2023-04-12T15:10:01.174Z,1007.10
2023-04-12T15:20:00.807Z,1007.21
2023-04-12T15:30:01.492Z,1007.27
2023-04-12T15:40:01.221Z,1007.21
2023-04-12T15:50:01.533Z,1007.18
2023-04-12T16:00:00.816Z,1007.23
2023-04-12T16:10:00.889Z,1007.05
2023-04-12T16:20:01.203Z,1006.81
2023-04-12T16:30:01.533Z,1006.73
2023-04-12T16:40:02.268Z,1006.74
2023-04-12T16:50:00.887Z,1006.64
2023-04-12T17:00:01.526Z,1006.65
2023-04-12T17:10:03.399Z,1006.65
2023-04-12T17:20:02.923Z,1006.48
2023-04-12T17:30:00.858Z,1006.36
2023-04-12T17:40:01.029Z,1006.32
2023-04-12T17:50:01.300Z,1006.11
2023-04-12T18:00:00.856Z,1006.17
2023-04-12T18:10:00.809Z,1006.25
2023-04-12T18:20:02.701Z,1006.23
2023-04-12T18:30:00.891Z,1006.06
2023-04-12T18:40:01.591Z,1006.17
2023-04-12T18:50:01.492Z,1006.18
2023-04-12T19:00:01.045Z,1006.10
2023-04-12T19:10:00.915Z,1006.20
2023-04-12T19:20:00.753Z,1006.02
2023-04-12T19:30:00.880Z,1005.92
2023-04-12T19:40:01.040Z,1005.90
2023-04-12T19:50:02.608Z,1005.84
2023-04-12T20:00:02.460Z,1005.74
2023-04-12T20:10:01.170Z,1005.68
2023-04-12T20:20:01.489Z,1005.56
2023-04-12T20:30:01.126Z,1005.54
2023-04-12T20:40:00.739Z,1005.22
2023-04-12T20:50:00.810Z,1005.29
2023-04-12T21:00:01.060Z,1005.24
2023-04-12T21:10:01.121Z,1005.27
2023-04-12T21:20:01.335Z,1005.29
2023-04-12T21:30:01.397Z,1005.28
2023-04-12T21:40:01.236Z,1005.26
2023-04-12T21:50:01.158Z,1005.32
2023-04-12T22:00:01.056Z,1005.20
2023-04-12T22:20:01.019Z,1005.27
2023-04-12T22:30:00.999Z,1005.39
2023-04-12T22:40:00.840Z,1005.53
2023-04-12T22:50:01.920Z,1005.50
2023-04-12T23:00:00.837Z,1005.25
2023-04-12T23:10:03.129Z,1005.32
2023-04-12T23:20:02.304Z,1005.37
2023-04-12T23:30:00.930Z,1005.29
2023-04-12T23:40:00.847Z,1005.33
2023-04-12T23:50:04.312Z,1005.48
